createdAt,value
2017-10-11T00:00:29.150Z,0
2017-10-11T00:01:39.466Z,0
2017-10-11T00:02:49.129Z,0
2017-10-11T00:03:59.105Z,0
2017-10-11T00:05:09.413Z,0
2017-10-11T00:06:19.696Z,0
2017-10-11T00:07:30.027Z,0
2017-10-11T00:08:40.011Z,0
2017-10-11T00:09:50.326Z,0
2017-10-11T00:11:00.325Z,0
2017-10-11T00:12:10.566Z,0
2017-10-11T00:13:20.892Z,0
2017-10-11T00:14:30.874Z,0
2017-10-11T00:15:41.199Z,0
2017-10-11T00:16:51.506Z,0
2017-10-11T00:18:02.072Z,0
2017-10-11T00:19:12.388Z,0
2017-10-11T00:20:22.723Z,0
2017-10-11T00:21:33.026Z,0
2017-10-11T00:22:42.678Z,0
2017-10-11T00:23:53.241Z,0
2017-10-11T00:25:02.911Z,0
2017-10-11T00:26:13.239Z,0
2017-10-11T00:27:23.549Z,0
2017-10-11T00:28:33.867Z,0
2017-10-11T00:29:44.425Z,0
2017-10-11T00:30:54.732Z,0
2017-10-11T00:32:05.063Z,0
2017-10-11T00:33:15.381Z,0
2017-10-11T00:34:25.701Z,0
2017-10-11T00:35:35.937Z,0
2017-10-11T00:36:46.273Z,0
2017-10-11T00:37:56.587Z,0
2017-10-11T00:39:06.569Z,0
2017-10-11T00:40:16.568Z,0
2017-10-11T00:41:26.806Z,0
2017-10-11T00:42:37.123Z,0
2017-10-11T00:43:47.449Z,0
2017-10-11T00:44:57.769Z,0
2017-10-11T00:46:08.096Z,0
2017-10-11T00:47:18.666Z,0
2017-10-11T00:48:28.661Z,0
2017-10-11T00:49:38.647Z,0
2017-10-11T00:50:48.955Z,0
2017-10-11T00:51:58.956Z,0
2017-10-11T00:53:09.211Z,0
2017-10-11T00:54:19.201Z,0
2017-10-11T00:55:29.509Z,0
2017-10-11T00:56:39.850Z,0
2017-10-11T00:57:50.196Z,0
2017-10-11T00:59:00.766Z,0
2017-10-11T01:00:11.089Z,0
2017-10-11T01:01:21.127Z,0
2017-10-11T01:02:31.137Z,0
2017-10-11T01:03:41.137Z,0
2017-10-11T01:04:51.370Z,0
2017-10-11T01:06:01.686Z,0
2017-10-11T01:07:12.010Z,0
2017-10-11T01:08:21.999Z,0
2017-10-11T01:09:31.979Z,0
2017-10-11T01:10:42.217Z,0
2017-10-11T01:11:52.529Z,0
2017-10-11T01:13:02.843Z,0
2017-10-11T01:14:13.166Z,0
2017-10-11T01:15:22.843Z,0
2017-10-11T01:16:33.089Z,0
2017-10-11T01:17:43.071Z,0
2017-10-11T01:18:53.093Z,0
2017-10-11T01:20:03.424Z,0
2017-10-11T01:21:13.746Z,0
2017-10-11T01:22:23.977Z,0
2017-10-11T01:23:34.313Z,0
2017-10-11T01:24:44.629Z,0
2017-10-11T01:25:54.938Z,0
2017-10-11T01:27:05.256Z,0
2017-10-11T01:28:15.888Z,0
2017-10-11T01:29:25.870Z,0
2017-10-11T01:30:36.191Z,0
2017-10-11T01:31:46.520Z,0
2017-10-11T01:32:56.834Z,0
2017-10-11T01:34:07.096Z,0
2017-10-11T01:35:17.412Z,0
2017-10-11T01:36:27.741Z,0
2017-10-11T01:37:38.050Z,0
2017-10-11T01:38:48.365Z,0
2017-10-11T01:39:58.930Z,0
2017-10-11T01:41:08.924Z,0
2017-10-11T01:42:19.242Z,0
2017-10-11T01:43:28.896Z,0
2017-10-11T01:44:38.889Z,0
2017-10-11T01:45:49.450Z,0
2017-10-11T01:46:59.780Z,0
2017-10-11T01:48:10.100Z,0
2017-10-11T01:49:20.084Z,0
2017-10-11T01:50:29.739Z,0
2017-10-11T01:51:40.313Z,0
2017-10-11T01:52:50.318Z,0
2017-10-11T01:54:00.635Z,0
2017-10-11T01:55:10.946Z,0
2017-10-11T01:56:20.929Z,0
2017-10-11T01:57:31.550Z,0
2017-10-11T01:58:41.854Z,0
2017-10-11T01:59:51.842Z,0
2017-10-11T02:01:02.152Z,0
2017-10-11T02:02:12.470Z,0
2017-10-11T02:03:23.034Z,0
2017-10-11T02:04:33.006Z,0
2017-10-11T02:05:42.997Z,0
2017-10-11T02:06:53.000Z,0
2017-10-11T02:08:02.996Z,0
2017-10-11T02:09:13.567Z,0
2017-10-11T02:10:23.884Z,0
2017-10-11T02:11:34.199Z,0
2017-10-11T02:12:44.507Z,0
2017-10-11T02:13:54.818Z,0
2017-10-11T02:15:05.048Z,0
2017-10-11T02:16:14.733Z,0
2017-10-11T02:17:25.047Z,0
2017-10-11T02:18:35.028Z,0
2017-10-11T02:19:45.347Z,0
2017-10-11T02:20:55.915Z,0
2017-10-11T02:22:06.223Z,0
2017-10-11T02:23:16.542Z,0
2017-10-11T02:24:26.864Z,0
2017-10-11T02:25:36.851Z,0
2017-10-11T02:26:47.417Z,0
2017-10-11T02:27:57.734Z,0
2017-10-11T02:29:07.727Z,0
2017-10-11T02:30:17.777Z,0
2017-10-11T02:31:28.096Z,0
2017-10-11T02:32:38.327Z,0
2017-10-11T02:33:48.313Z,0
2017-10-11T02:34:58.632Z,0
2017-10-11T02:36:08.945Z,0
2017-10-11T02:37:18.934Z,0
2017-10-11T02:38:29.517Z,0
2017-10-11T02:39:39.523Z,0
2017-10-11T02:40:49.841Z,0
2017-10-11T02:41:59.820Z,0
2017-10-11T02:43:09.493Z,0
2017-10-11T02:44:19.731Z,0
2017-10-11T02:45:29.409Z,0
2017-10-11T02:46:39.720Z,0
2017-10-11T02:47:50.037Z,0
2017-10-11T02:49:00.031Z,0
2017-10-11T02:50:10.662Z,0
2017-10-11T02:51:20.988Z,0
2017-10-11T02:52:31.299Z,0
2017-10-11T02:53:41.290Z,0
2017-10-11T02:54:51.290Z,0
2017-10-11T02:56:01.534Z,0
2017-10-11T02:57:11.519Z,0
2017-10-11T02:58:21.508Z,0
2017-10-11T02:59:31.502Z,0
2017-10-11T03:00:41.813Z,0
2017-10-11T03:01:52.054Z,0
2017-10-11T03:03:02.377Z,0
2017-10-11T03:04:12.719Z,0
2017-10-11T03:05:23.039Z,0
2017-10-11T03:06:33.030Z,0
2017-10-11T03:07:43.273Z,0
2017-10-11T03:08:53.577Z,0
2017-10-11T03:10:03.889Z,0
2017-10-11T03:11:13.871Z,0
2017-10-11T03:12:23.852Z,0
2017-10-11T03:13:34.089Z,0
2017-10-11T03:14:44.400Z,0
2017-10-11T03:15:54.395Z,0
2017-10-11T03:17:04.715Z,0
2017-10-11T03:18:15.037Z,0
2017-10-11T03:19:25.269Z,0
2017-10-11T03:20:34.929Z,0
2017-10-11T03:21:45.244Z,0
2017-10-11T03:22:55.236Z,0
2017-10-11T03:24:05.229Z,0
2017-10-11T03:25:15.801Z,0
2017-10-11T03:26:25.462Z,0
2017-10-11T03:27:35.451Z,0
2017-10-11T03:28:45.437Z,0
2017-10-11T03:29:55.743Z,0
2017-10-11T03:31:06.320Z,0
2017-10-11T03:32:16.642Z,0
2017-10-11T03:33:26.963Z,0
2017-10-11T03:34:36.948Z,0
2017-10-11T03:35:47.255Z,0
2017-10-11T03:36:57.485Z,0
2017-10-11T03:38:07.483Z,0
2017-10-11T03:39:17.794Z,0
2017-10-11T03:40:27.797Z,0
2017-10-11T03:41:37.463Z,0
2017-10-11T03:42:48.050Z,0
2017-10-11T03:43:58.365Z,0
2017-10-11T03:45:08.686Z,0
2017-10-11T03:46:19.007Z,0
2017-10-11T03:47:29.318Z,0
2017-10-11T03:48:39.875Z,0
2017-10-11T03:49:50.196Z,0
2017-10-11T03:51:00.521Z,0
2017-10-11T03:52:10.188Z,0
2017-10-11T03:53:20.183Z,0
2017-10-11T03:54:30.742Z,0
2017-10-11T03:55:40.727Z,0
2017-10-11T03:56:51.041Z,0
2017-10-11T03:58:01.355Z,0
2017-10-11T03:59:11.672Z,0
2017-10-11T04:00:21.901Z,0
2017-10-11T04:01:32.225Z,0
2017-10-11T04:02:42.214Z,0
2017-10-11T04:03:52.536Z,0
2017-10-11T04:05:02.848Z,0
2017-10-11T04:06:13.074Z,0
2017-10-11T04:07:23.413Z,0
2017-10-11T04:08:33.727Z,0
2017-10-11T04:09:43.709Z,0
2017-10-11T04:10:53.689Z,0
2017-10-11T04:12:04.264Z,0
2017-10-11T04:13:14.585Z,0
2017-10-11T04:14:24.931Z,0
2017-10-11T04:15:34.962Z,0
2017-10-11T04:16:45.320Z,0
2017-10-11T04:17:55.908Z,0
2017-10-11T04:19:06.214Z,0
2017-10-11T04:20:16.545Z,0
2017-10-11T04:21:26.560Z,0
2017-10-11T04:22:36.885Z,0
2017-10-11T04:23:47.457Z,0
2017-10-11T04:24:57.759Z,0
2017-10-11T04:26:08.088Z,0
2017-10-11T04:27:18.077Z,0
2017-10-11T04:28:28.388Z,0
2017-10-11T04:29:38.968Z,0
2017-10-11T04:30:49.335Z,0
2017-10-11T04:31:59.318Z,0
2017-10-11T04:33:08.985Z,0
2017-10-11T04:34:18.963Z,0
2017-10-11T04:35:29.588Z,0
2017-10-11T04:36:39.926Z,0
2017-10-11T04:37:50.249Z,0
2017-10-11T04:39:00.246Z,0
2017-10-11T04:40:10.249Z,0
2017-10-11T04:41:20.820Z,0
2017-10-11T04:42:31.146Z,0
2017-10-11T04:43:41.133Z,0
2017-10-11T04:44:51.455Z,0
2017-10-11T04:46:01.818Z,0
2017-10-11T04:47:12.069Z,0
2017-10-11T04:48:22.049Z,0
2017-10-11T04:49:32.034Z,0
2017-10-11T04:50:42.349Z,0
2017-10-11T04:51:52.682Z,0
2017-10-11T04:53:03.235Z,0
2017-10-11T04:54:12.892Z,0
2017-10-11T04:55:23.216Z,0
2017-10-11T04:56:33.526Z,0
2017-10-11T04:57:43.844Z,0
2017-10-11T04:58:54.416Z,0
2017-10-11T05:00:04.738Z,0
2017-10-11T05:01:15.072Z,0
2017-10-11T05:02:25.067Z,0
2017-10-11T05:03:35.386Z,0
2017-10-11T05:04:45.953Z,0
2017-10-11T05:05:56.267Z,0
2017-10-11T05:07:06.254Z,0
2017-10-11T05:08:16.237Z,0
2017-10-11T05:09:26.549Z,0
2017-10-11T05:10:36.779Z,0
2017-10-11T05:11:47.091Z,0
2017-10-11T05:12:57.406Z,0
2017-10-11T05:14:07.394Z,0
2017-10-11T05:15:17.396Z,0
2017-10-11T05:16:28.015Z,0
2017-10-11T05:17:38.327Z,0
2017-10-11T05:18:48.686Z,0
2017-10-11T05:19:58.996Z,0
2017-10-11T05:21:08.990Z,0
2017-10-11T05:22:19.225Z,0
2017-10-11T05:23:29.598Z,0
2017-10-11T05:24:39.950Z,0
2017-10-11T05:25:50.259Z,0
2017-10-11T05:27:00.253Z,0
2017-10-11T05:28:10.905Z,0
2017-10-11T05:29:20.927Z,0
2017-10-11T05:30:31.239Z,5
2017-10-11T05:31:41.550Z,5
2017-10-11T05:32:51.531Z,5
2017-10-11T05:34:02.099Z,5
2017-10-11T05:35:12.408Z,5
2017-10-11T05:36:22.072Z,5
2017-10-11T05:37:32.385Z,5
2017-10-11T05:38:42.692Z,10
2017-10-11T05:39:53.323Z,10
2017-10-11T05:41:03.307Z,10
2017-10-11T05:42:13.619Z,10
2017-10-11T05:43:23.944Z,10
2017-10-11T05:44:34.265Z,5
2017-10-11T05:45:44.854Z,5
2017-10-11T05:46:55.164Z,10
2017-10-11T05:48:05.503Z,15
2017-10-11T05:49:15.502Z,15
2017-10-11T05:50:25.496Z,15
2017-10-11T05:51:35.737Z,15
2017-10-11T05:52:46.057Z,25
2017-10-11T05:53:56.065Z,30
2017-10-11T05:55:05.728Z,35
2017-10-11T05:56:16.061Z,35
2017-10-11T05:57:26.702Z,40
2017-10-11T05:58:37.029Z,45
2017-10-11T05:59:47.396Z,50
2017-10-11T06:00:57.385Z,50
2017-10-11T06:02:07.716Z,45
2017-10-11T06:03:18.006Z,45
2017-10-11T06:04:28.375Z,45
2017-10-11T06:05:38.357Z,50
2017-10-11T06:06:48.356Z,50
2017-10-11T06:07:58.674Z,55
2017-10-11T06:09:09.251Z,55
2017-10-11T06:10:19.616Z,50
2017-10-11T06:11:29.937Z,50
2017-10-11T06:12:39.949Z,55
2017-10-11T06:13:50.289Z,60
2017-10-11T06:15:00.581Z,60
2017-10-11T06:16:10.562Z,55
2017-10-11T06:17:20.898Z,50
2017-10-11T06:18:31.243Z,50
2017-10-11T06:19:41.566Z,50
2017-10-11T06:20:52.185Z,50
2017-10-11T06:22:02.528Z,55
2017-10-11T06:23:12.988Z,55
2017-10-11T06:24:23.317Z,60
2017-10-11T06:25:33.318Z,60
2017-10-11T06:26:43.896Z,80
2017-10-11T06:27:54.218Z,85
2017-10-11T06:29:04.590Z,90
2017-10-11T06:30:14.584Z,90
2017-10-11T06:31:24.913Z,95
2017-10-11T06:32:35.485Z,95
2017-10-11T06:33:45.801Z,100
2017-10-11T06:34:55.805Z,100
2017-10-11T06:36:06.147Z,100
2017-10-11T06:37:16.469Z,95
2017-10-11T06:38:27.046Z,90
2017-10-11T06:39:37.042Z,90
2017-10-11T06:40:47.056Z,90
2017-10-11T06:41:57.390Z,95
2017-10-11T06:43:07.721Z,100
2017-10-11T06:44:18.339Z,105
2017-10-11T06:45:28.656Z,115
2017-10-11T06:46:38.991Z,130
2017-10-11T06:47:49.021Z,140
2017-10-11T06:48:59.396Z,150
2017-10-11T06:50:09.975Z,155
2017-10-11T06:51:20.287Z,160
2017-10-11T06:52:30.646Z,165
2017-10-11T06:53:40.968Z,170
2017-10-11T06:54:50.676Z,180
2017-10-11T06:56:01.294Z,185
2017-10-11T06:57:11.317Z,180
2017-10-11T06:58:21.316Z,175
2017-10-11T06:59:31.656Z,170
2017-10-11T07:00:41.322Z,185
2017-10-11T07:01:51.895Z,185
2017-10-11T07:03:02.249Z,200
2017-10-11T07:04:12.576Z,215
2017-10-11T07:05:22.589Z,245
2017-10-11T07:06:32.901Z,245
2017-10-11T07:07:43.162Z,240
2017-10-11T07:08:53.520Z,240
2017-10-11T07:10:03.863Z,230
2017-10-11T07:11:13.856Z,220
2017-10-11T07:12:24.016Z,210
2017-10-11T07:13:34.670Z,210
2017-10-11T07:14:44.348Z,205
2017-10-11T07:15:54.716Z,205
2017-10-11T07:17:04.716Z,200
2017-10-11T07:18:15.035Z,185
2017-10-11T07:19:25.284Z,160
2017-10-11T07:20:34.949Z,160
2017-10-11T07:21:45.326Z,155
2017-10-11T07:22:55.655Z,155
2017-10-11T07:24:05.653Z,150
2017-10-11T07:25:16.231Z,140
2017-10-11T07:26:26.541Z,140
2017-10-11T07:27:36.553Z,145
2017-10-11T07:28:46.946Z,150
2017-10-11T07:29:57.267Z,180
2017-10-11T07:31:07.505Z,210
2017-10-11T07:32:17.509Z,230
2017-10-11T07:33:27.853Z,215
2017-10-11T07:34:38.216Z,200
2017-10-11T07:35:48.556Z,205
2017-10-11T07:36:59.124Z,210
2017-10-11T07:38:09.441Z,210
2017-10-11T07:39:19.782Z,195
2017-10-11T07:40:29.765Z,180
2017-10-11T07:41:39.769Z,195
2017-10-11T07:42:50.349Z,245
2017-10-11T07:44:00.698Z,305
2017-10-11T07:45:11.050Z,360
2017-10-11T07:46:21.470Z,370
2017-10-11T07:47:31.794Z,370
2017-10-11T07:48:42.044Z,345
2017-10-11T07:49:52.361Z,340
2017-10-11T07:51:02.383Z,345
2017-10-11T07:52:12.738Z,350
2017-10-11T07:53:23.146Z,380
2017-10-11T07:54:33.718Z,430
2017-10-11T07:55:44.054Z,505
2017-10-11T07:56:54.383Z,435
2017-10-11T07:58:04.704Z,360
2017-10-11T07:59:14.471Z,370
2017-10-11T08:00:24.863Z,365
2017-10-11T08:01:35.196Z,350
2017-10-11T08:02:45.554Z,315
2017-10-11T08:03:56.080Z,260
2017-10-11T08:05:06.451Z,230
2017-10-11T08:06:17.026Z,210
2017-10-11T08:07:27.359Z,200
2017-10-11T08:08:37.696Z,220
2017-10-11T08:09:48.021Z,260
2017-10-11T08:10:58.344Z,305
2017-10-11T08:12:08.931Z,355
2017-10-11T08:13:19.283Z,355
2017-10-11T08:14:29.607Z,350
2017-10-11T08:15:39.592Z,315
2017-10-11T08:16:49.583Z,285
2017-10-11T08:18:00.216Z,275
2017-10-11T08:19:10.218Z,300
2017-10-11T08:20:20.574Z,340
2017-10-11T08:21:30.576Z,360
2017-10-11T08:22:41.149Z,335
2017-10-11T08:23:51.743Z,315
2017-10-11T08:25:02.096Z,320
2017-10-11T08:26:12.428Z,345
2017-10-11T08:27:22.758Z,390
2017-10-11T08:28:32.749Z,400
2017-10-11T08:29:42.999Z,360
2017-10-11T08:30:52.994Z,315
2017-10-11T08:32:02.989Z,290
2017-10-11T08:33:13.322Z,380
2017-10-11T08:34:23.326Z,625
2017-10-11T08:35:33.910Z,660
2017-10-11T08:36:44.257Z,645
2017-10-11T08:37:53.919Z,690
2017-10-11T08:39:04.248Z,630
2017-10-11T08:40:14.561Z,870
2017-10-11T08:41:24.514Z,910
2017-10-11T08:42:34.850Z,870
2017-10-11T08:43:45.185Z,705
2017-10-11T08:44:55.175Z,730
2017-10-11T08:46:05.182Z,1045
2017-10-11T08:47:15.468Z,1550
2017-10-11T08:48:25.805Z,825
2017-10-11T08:49:36.121Z,800
2017-10-11T08:50:46.161Z,1080
2017-10-11T08:51:56.479Z,765
2017-10-11T08:53:07.073Z,535
2017-10-11T08:54:17.437Z,500
2017-10-11T08:55:27.459Z,615
2017-10-11T08:56:37.783Z,560
2017-10-11T08:57:48.141Z,560
2017-10-11T08:58:58.399Z,1050
2017-10-11T09:00:08.741Z,900
2017-10-11T09:01:19.307Z,800
2017-10-11T09:02:29.671Z,1495
2017-10-11T09:03:40.009Z,1110
2017-10-11T09:04:50.598Z,1210
2017-10-11T09:06:00.975Z,750
2017-10-11T09:07:10.995Z,765
2017-10-11T09:08:21.330Z,755
2017-10-11T09:09:31.692Z,1510
2017-10-11T09:10:42.281Z,1095
2017-10-11T09:11:52.914Z,825
2017-10-11T09:13:03.300Z,735
2017-10-11T09:14:13.652Z,995
2017-10-11T09:15:24.002Z,660
2017-10-11T09:16:34.583Z,650
2017-10-11T09:17:44.921Z,655
2017-10-11T09:18:54.920Z,585
2017-10-11T09:20:05.239Z,475
2017-10-11T09:21:14.934Z,445
2017-10-11T09:22:25.498Z,490
2017-10-11T09:23:35.831Z,490
2017-10-11T09:24:46.161Z,495
2017-10-11T09:25:56.500Z,500
2017-10-11T09:27:06.815Z,565
2017-10-11T09:28:16.699Z,680
2017-10-11T09:29:26.988Z,690
2017-10-11T09:30:37.302Z,660
2017-10-11T09:31:47.622Z,795
2017-10-11T09:32:57.609Z,740
2017-10-11T09:34:07.856Z,550
2017-10-11T09:35:18.192Z,470
2017-10-11T09:36:27.958Z,485
2017-10-11T09:37:38.381Z,485
2017-10-11T09:38:48.389Z,475
2017-10-11T09:39:58.977Z,515
2017-10-11T09:41:09.340Z,555
2017-10-11T09:42:19.507Z,440
2017-10-11T09:43:29.905Z,430
2017-10-11T09:44:40.235Z,460
2017-10-11T09:45:50.481Z,455
2017-10-11T09:47:00.825Z,390
2017-10-11T09:48:11.166Z,385
2017-10-11T09:49:21.536Z,465
2017-10-11T09:50:31.525Z,455
2017-10-11T09:51:42.108Z,365
2017-10-11T09:52:52.443Z,355
2017-10-11T09:54:02.440Z,410
2017-10-11T09:55:12.801Z,425
2017-10-11T09:56:23.173Z,445
2017-10-11T09:57:33.760Z,445
2017-10-11T09:58:43.754Z,405
2017-10-11T09:59:54.096Z,450
2017-10-11T10:01:04.108Z,445
2017-10-11T10:02:14.442Z,470
2017-10-11T10:03:25.054Z,535
2017-10-11T10:04:35.418Z,585
2017-10-11T10:05:45.431Z,595
2017-10-11T10:06:55.770Z,530
2017-10-11T10:08:06.095Z,480
2017-10-11T10:09:16.670Z,445
2017-10-11T10:10:27.015Z,380
2017-10-11T10:11:37.071Z,320
2017-10-11T10:12:47.060Z,350
2017-10-11T10:13:57.058Z,375
2017-10-11T10:15:07.632Z,410
2017-10-11T10:16:17.651Z,395
2017-10-11T10:17:27.970Z,375
2017-10-11T10:18:38.296Z,370
2017-10-11T10:19:48.298Z,350
2017-10-11T10:20:58.553Z,320
2017-10-11T10:22:08.890Z,305
2017-10-11T10:23:19.221Z,325
2017-10-11T10:24:29.552Z,305
2017-10-11T10:25:39.928Z,290
2017-10-11T10:26:50.495Z,240
2017-10-11T10:28:00.843Z,255
2017-10-11T10:29:10.857Z,235
2017-10-11T10:30:21.201Z,210
2017-10-11T10:31:31.459Z,175
2017-10-11T10:32:42.041Z,155
2017-10-11T10:33:52.430Z,180
2017-10-11T10:35:02.758Z,245
2017-10-11T10:36:12.781Z,250
2017-10-11T10:37:23.125Z,180
2017-10-11T10:38:33.373Z,165
2017-10-11T10:39:43.692Z,165
2017-10-11T10:40:53.687Z,165
2017-10-11T10:42:03.358Z,175
2017-10-11T10:43:13.668Z,195
2017-10-11T10:44:23.918Z,245
2017-10-11T10:45:34.264Z,275
2017-10-11T10:46:44.591Z,320
2017-10-11T10:47:54.276Z,320
2017-10-11T10:49:04.280Z,320
2017-10-11T10:50:14.903Z,355
2017-10-11T10:51:25.216Z,385
2017-10-11T10:52:35.550Z,445
2017-10-11T10:53:45.890Z,455
2017-10-11T10:54:56.245Z,385
2017-10-11T10:56:06.813Z,345
2017-10-11T10:57:17.137Z,275
2017-10-11T10:58:27.454Z,225
2017-10-11T10:59:37.782Z,250
2017-10-11T11:00:47.800Z,275
2017-10-11T11:01:58.366Z,335
2017-10-11T11:03:08.698Z,325
2017-10-11T11:04:19.028Z,290
2017-10-11T11:05:29.041Z,305
2017-10-11T11:06:39.374Z,320
2017-10-11T11:07:49.636Z,350
2017-10-11T11:08:59.311Z,410
2017-10-11T11:10:09.639Z,420
2017-10-11T11:11:19.994Z,420
2017-10-11T11:12:30.356Z,430
2017-10-11T11:13:40.606Z,430
2017-10-11T11:14:50.987Z,390
2017-10-11T11:16:01.171Z,345
2017-10-11T11:17:11.734Z,310
2017-10-11T11:18:21.738Z,275
2017-10-11T11:19:31.676Z,235
2017-10-11T11:20:42.031Z,220
2017-10-11T11:21:52.624Z,210
2017-10-11T11:23:02.990Z,230
2017-10-11T11:24:13.318Z,310
2017-10-11T11:25:23.572Z,405
2017-10-11T11:26:33.576Z,490
2017-10-11T11:27:43.926Z,520
2017-10-11T11:28:54.243Z,510
2017-10-11T11:30:04.789Z,505
2017-10-11T11:31:14.710Z,485
2017-10-11T11:32:24.727Z,465
2017-10-11T11:33:35.047Z,485
2017-10-11T11:34:45.387Z,490
2017-10-11T11:35:55.731Z,435
2017-10-11T11:37:06.292Z,410
2017-10-11T11:38:16.608Z,420
2017-10-11T11:39:26.964Z,405
2017-10-11T11:40:37.276Z,410
2017-10-11T11:41:47.615Z,445
2017-10-11T11:42:58.257Z,455
2017-10-11T11:44:08.591Z,465
2017-10-11T11:45:18.588Z,450
2017-10-11T11:46:28.586Z,425
2017-10-11T11:47:38.902Z,415
2017-10-11T11:48:49.155Z,375
2017-10-11T11:49:59.474Z,365
2017-10-11T11:51:09.474Z,335
2017-10-11T11:52:19.485Z,355
2017-10-11T11:53:29.522Z,335
2017-10-11T11:54:39.817Z,325
2017-10-11T11:55:50.144Z,300
2017-10-11T11:57:00.136Z,280
2017-10-11T11:58:10.158Z,275
2017-10-11T11:59:20.479Z,275
2017-10-11T12:00:31.051Z,280
2017-10-11T12:01:41.375Z,270
2017-10-11T12:02:51.744Z,265
2017-10-11T12:04:02.057Z,265
2017-10-11T12:05:12.068Z,275
2017-10-11T12:06:22.651Z,265
2017-10-11T12:07:32.982Z,260
2017-10-11T12:08:43.297Z,240
2017-10-11T12:09:52.972Z,230
2017-10-11T12:11:02.969Z,230
2017-10-11T12:12:13.227Z,195
2017-10-11T12:13:23.236Z,160
2017-10-11T12:14:33.283Z,165
2017-10-11T12:15:43.605Z,155
2017-10-11T12:16:53.944Z,145
2017-10-11T12:18:04.809Z,165
2017-10-11T12:19:15.147Z,180
2017-10-11T12:20:25.485Z,200
2017-10-11T12:21:35.821Z,200
2017-10-11T12:22:46.159Z,185
2017-10-11T12:23:56.775Z,165
2017-10-11T12:25:06.435Z,175
2017-10-11T12:26:16.773Z,170
2017-10-11T12:27:27.164Z,175
2017-10-11T12:28:37.504Z,160
2017-10-11T12:29:48.073Z,140
2017-10-11T12:30:58.425Z,125
2017-10-11T12:32:08.761Z,145
2017-10-11T12:33:19.103Z,160
2017-10-11T12:34:29.645Z,180
2017-10-11T12:35:40.230Z,230
2017-10-11T12:36:50.609Z,220
2017-10-11T12:38:00.590Z,195
2017-10-11T12:39:10.623Z,190
2017-10-11T12:40:20.992Z,200
2017-10-11T12:41:31.558Z,155
2017-10-11T12:42:41.871Z,190
2017-10-11T12:43:52.200Z,245
2017-10-11T12:45:02.540Z,295
2017-10-11T12:46:12.548Z,310
2017-10-11T12:47:22.896Z,260
2017-10-11T12:48:33.234Z,290
2017-10-11T12:49:43.248Z,260
2017-10-11T12:50:53.573Z,225
2017-10-11T12:52:03.272Z,215
2017-10-11T12:53:13.204Z,215
2017-10-11T12:54:22.847Z,180
2017-10-11T12:55:32.839Z,170
2017-10-11T12:56:43.222Z,155
2017-10-11T12:57:53.237Z,195
2017-10-11T12:59:03.810Z,245
2017-10-11T13:00:14.132Z,285
2017-10-11T13:01:23.795Z,310
2017-10-11T13:02:33.796Z,465
2017-10-11T13:03:44.166Z,585
2017-10-11T13:04:54.745Z,680
2017-10-11T13:06:05.130Z,760
2017-10-11T13:07:15.452Z,750
2017-10-11T13:08:25.445Z,770
2017-10-11T13:09:35.112Z,815
2017-10-11T13:10:45.729Z,830
2017-10-11T13:11:56.097Z,780
2017-10-11T13:13:06.450Z,690
2017-10-11T13:14:16.449Z,600
2017-10-11T13:15:26.451Z,510
2017-10-11T13:16:37.022Z,460
2017-10-11T13:17:47.383Z,420
2017-10-11T13:18:57.698Z,320
2017-10-11T13:20:08.031Z,295
2017-10-11T13:21:18.364Z,315
2017-10-11T13:22:28.987Z,265
2017-10-11T13:23:38.985Z,225
2017-10-11T13:24:49.318Z,210
2017-10-11T13:25:58.989Z,200
2017-10-11T13:27:08.661Z,255
2017-10-11T13:28:19.242Z,315
2017-10-11T13:29:28.917Z,395
2017-10-11T13:30:39.253Z,360
2017-10-11T13:31:49.601Z,365
2017-10-11T13:32:59.958Z,350
2017-10-11T13:34:10.550Z,320
2017-10-11T13:35:20.562Z,305
2017-10-11T13:36:30.909Z,330
2017-10-11T13:37:41.226Z,295
2017-10-11T13:38:51.572Z,285
2017-10-11T13:40:01.824Z,355
2017-10-11T13:41:12.147Z,415
2017-10-11T13:42:22.488Z,415
2017-10-11T13:43:32.170Z,370
2017-10-11T13:44:42.507Z,310
2017-10-11T13:45:52.740Z,295
2017-10-11T13:47:03.085Z,285
2017-10-11T13:48:13.111Z,280
2017-10-11T13:49:23.127Z,275
2017-10-11T13:50:33.462Z,245
2017-10-11T13:51:43.727Z,225
2017-10-11T13:52:54.075Z,220
2017-10-11T13:54:04.409Z,210
2017-10-11T13:55:14.737Z,190
2017-10-11T13:56:25.061Z,185
2017-10-11T13:57:35.642Z,165
2017-10-11T13:58:45.623Z,170
2017-10-11T13:59:55.629Z,155
2017-10-11T14:01:05.960Z,140
2017-10-11T14:02:16.284Z,160
2017-10-11T14:03:26.867Z,150
2017-10-11T14:04:36.911Z,130
2017-10-11T14:05:47.244Z,110
2017-10-11T14:06:57.569Z,100
2017-10-11T14:08:07.909Z,105
2017-10-11T14:09:18.478Z,95
2017-10-11T14:10:28.817Z,95
2017-10-11T14:11:38.815Z,105
2017-10-11T14:12:49.151Z,80
2017-10-11T14:13:59.156Z,85
2017-10-11T14:15:09.777Z,90
2017-10-11T14:16:20.113Z,85
2017-10-11T14:17:30.432Z,80
2017-10-11T14:18:40.770Z,75
2017-10-11T14:19:51.125Z,85
2017-10-11T14:21:01.745Z,95
2017-10-11T14:22:12.060Z,110
2017-10-11T14:23:22.407Z,110
2017-10-11T14:24:32.408Z,90
2017-10-11T14:25:42.407Z,85
2017-10-11T14:26:53.012Z,80
2017-10-11T14:28:03.021Z,80
2017-10-11T14:29:13.015Z,75
2017-10-11T14:30:23.009Z,85
2017-10-11T14:31:33.339Z,85
2017-10-11T14:32:43.962Z,75
2017-10-11T14:33:54.284Z,70
2017-10-11T14:35:03.983Z,75
2017-10-11T14:36:14.759Z,85
2017-10-11T14:37:25.084Z,75
2017-10-11T14:38:35.654Z,70
2017-10-11T14:39:45.652Z,70
2017-10-11T14:40:55.660Z,75
2017-10-11T14:42:05.664Z,80
2017-10-11T14:43:15.999Z,85
2017-10-11T14:44:26.233Z,80
2017-10-11T14:45:36.245Z,70
2017-10-11T14:46:46.582Z,70
2017-10-11T14:47:56.901Z,70
2017-10-11T14:49:07.215Z,70
2017-10-11T14:50:17.475Z,70
2017-10-11T14:51:27.472Z,70
2017-10-11T14:52:37.465Z,70
2017-10-11T14:53:47.788Z,75
2017-10-11T14:54:57.793Z,80
2017-10-11T14:56:08.427Z,85
2017-10-11T14:57:18.751Z,90
2017-10-11T14:58:28.742Z,95
2017-10-11T14:59:38.732Z,110
2017-10-11T15:00:49.058Z,135
2017-10-11T15:01:59.027Z,150
2017-10-11T15:03:09.033Z,150
2017-10-11T15:04:19.365Z,135
2017-10-11T15:05:29.355Z,110
2017-10-11T15:06:39.349Z,100
2017-10-11T15:07:49.589Z,105
2017-10-11T15:08:59.905Z,105
2017-10-11T15:10:09.891Z,100
2017-10-11T15:11:19.883Z,95
2017-10-11T15:12:29.546Z,105
2017-10-11T15:13:40.143Z,115
2017-10-11T15:14:50.469Z,115
2017-10-11T15:16:01.020Z,110
2017-10-11T15:17:11.336Z,100
2017-10-11T15:18:21.651Z,90
2017-10-11T15:19:31.891Z,80
2017-10-11T15:20:41.887Z,85
2017-10-11T15:21:52.214Z,85
2017-10-11T15:23:02.200Z,80
2017-10-11T15:24:12.528Z,80
2017-10-11T15:25:23.100Z,75
2017-10-11T15:26:33.446Z,70
2017-10-11T15:27:43.770Z,65
2017-10-11T15:28:53.757Z,60
2017-10-11T15:30:04.087Z,65
2017-10-11T15:31:14.343Z,65
2017-10-11T15:32:24.668Z,65
2017-10-11T15:33:35.001Z,65
2017-10-11T15:34:45.318Z,65
2017-10-11T15:35:55.650Z,65
2017-10-11T15:37:06.224Z,60
2017-10-11T15:38:16.208Z,60
2017-10-11T15:39:26.533Z,50
2017-10-11T15:40:36.535Z,50
2017-10-11T15:41:46.854Z,40
2017-10-11T15:42:57.437Z,40
2017-10-11T15:44:07.764Z,35
2017-10-11T15:45:18.082Z,35
2017-10-11T15:46:28.424Z,30
2017-10-11T15:47:38.744Z,30
2017-10-11T15:48:49.310Z,30
2017-10-11T15:49:59.646Z,30
2017-10-11T15:51:09.635Z,30
2017-10-11T15:52:19.634Z,30
2017-10-11T15:53:29.953Z,25
2017-10-11T15:54:40.523Z,25
2017-10-11T15:55:50.840Z,30
2017-10-11T15:57:01.150Z,30
2017-10-11T15:58:11.140Z,25
2017-10-11T15:59:21.464Z,25
2017-10-11T16:00:32.049Z,25
2017-10-11T16:01:42.374Z,20
2017-10-11T16:02:52.693Z,20
2017-10-11T16:04:02.693Z,15
2017-10-11T16:05:13.020Z,15
2017-10-11T16:06:23.252Z,10
2017-10-11T16:07:33.577Z,10
2017-10-11T16:08:43.930Z,10
2017-10-11T16:09:54.252Z,10
2017-10-11T16:11:04.245Z,10
2017-10-11T16:12:14.830Z,10
2017-10-11T16:13:25.146Z,10
2017-10-11T16:14:35.150Z,10
2017-10-11T16:15:45.465Z,10
2017-10-11T16:16:55.784Z,10
2017-10-11T16:18:06.363Z,10
2017-10-11T16:19:16.033Z,5
2017-10-11T16:20:25.694Z,5
2017-10-11T16:21:36.009Z,5
2017-10-11T16:22:46.010Z,5
2017-10-11T16:23:56.589Z,5
2017-10-11T16:25:06.249Z,5
2017-10-11T16:26:16.590Z,0
2017-10-11T16:27:26.248Z,0
2017-10-11T16:28:36.565Z,0
2017-10-11T16:29:47.132Z,0
2017-10-11T16:30:57.453Z,0
2017-10-11T16:32:07.774Z,0
2017-10-11T16:33:18.104Z,0
2017-10-11T16:34:28.429Z,0
2017-10-11T16:35:38.993Z,0
2017-10-11T16:36:49.313Z,0